createdAt,value
2023-05-09T00:01:21.034Z,16.58
2023-05-09T00:03:47.832Z,17.23
2023-05-09T00:06:15.432Z,15.23
2023-05-09T00:08:42.085Z,15.18
2023-05-09T00:11:08.945Z,17.38
2023-05-09T00:13:35.909Z,15.70
2023-05-09T00:16:03.481Z,17.05
2023-05-09T00:18:31.214Z,18.08
2023-05-09T00:20:58.047Z,16.02
2023-05-09T00:23:24.680Z,18.33
2023-05-09T00:25:51.371Z,20.27
2023-05-09T00:28:18.137Z,18.50
2023-05-09T00:30:44.886Z,16.45
2023-05-09T00:33:11.690Z,15.27
2023-05-09T00:35:38.611Z,16.67
2023-05-09T00:38:05.313Z,15.30
2023-05-09T00:40:32.019Z,17.00
2023-05-09T00:43:01.374Z,17.27
2023-05-09T00:45:28.107Z,16.70
2023-05-09T00:47:55.537Z,15.50
2023-05-09T00:50:22.170Z,14.98
2023-05-09T00:52:48.927Z,14.73
2023-05-09T00:55:16.451Z,15.30
2023-05-09T00:57:43.642Z,15.52
2023-05-09T01:00:14.465Z,16.58
2023-05-09T01:02:48.278Z,19.05
2023-05-09T01:05:15.441Z,21.48
2023-05-09T01:08:03.190Z,19.40
2023-05-09T01:10:32.764Z,20.00
2023-05-09T01:15:31.601Z,19.33
2023-05-09T01:21:08.749Z,20.15
2023-05-09T01:23:44.382Z,17.50
2023-05-09T01:26:45.257Z,15.52
2023-05-09T01:29:35.695Z,22.30
2023-05-09T01:32:10.053Z,21.50
2023-05-09T01:34:40.402Z,21.63
2023-05-09T01:37:08.317Z,25.13
2023-05-09T01:39:39.757Z,25.70
2023-05-09T01:42:09.665Z,23.77
2023-05-09T01:44:39.696Z,24.35
2023-05-09T01:47:08.163Z,28.23
2023-05-09T01:49:36.529Z,26.88
2023-05-09T01:52:08.087Z,23.38
2023-05-09T01:54:35.960Z,24.70
2023-05-09T01:57:04.015Z,22.98
2023-05-09T01:59:33.155Z,20.58
2023-05-09T02:02:00.042Z,21.65
2023-05-09T02:04:29.092Z,22.13
2023-05-09T02:06:57.070Z,22.65
2023-05-09T02:09:24.205Z,20.52
2023-05-09T02:11:50.858Z,20.00
2023-05-09T02:14:17.838Z,21.95
2023-05-09T02:16:44.595Z,23.05
2023-05-09T02:19:11.350Z,21.83
2023-05-09T02:21:38.318Z,20.63
2023-05-09T02:24:05.432Z,20.88
2023-05-09T02:26:32.848Z,21.02
2023-05-09T02:29:00.694Z,22.13
2023-05-09T02:31:29.558Z,20.92
2023-05-09T02:33:56.934Z,21.25
2023-05-09T02:36:25.214Z,20.65
2023-05-09T02:38:52.127Z,18.52
2023-05-09T02:41:18.921Z,20.38
2023-05-09T02:43:46.128Z,23.77
2023-05-09T02:46:13.023Z,23.52
2023-05-09T02:48:39.848Z,22.83
2023-05-09T02:51:06.561Z,25.27
2023-05-09T02:53:33.311Z,23.80
2023-05-09T02:55:59.927Z,20.63
2023-05-09T02:58:26.694Z,24.13
2023-05-09T03:00:53.289Z,25.23
2023-05-09T03:03:22.110Z,23.17
2023-05-09T03:05:48.846Z,26.10
2023-05-09T03:08:15.953Z,22.70
2023-05-09T03:10:42.653Z,20.63
2023-05-09T03:13:09.326Z,18.75
2023-05-09T03:15:36.094Z,18.17
2023-05-09T03:18:02.773Z,19.08
2023-05-09T03:20:29.423Z,19.65
2023-05-09T03:22:56.104Z,20.45
2023-05-09T03:25:22.824Z,21.13
2023-05-09T03:27:49.497Z,22.02
2023-05-09T03:30:16.161Z,26.92
2023-05-09T03:32:42.964Z,20.85
2023-05-09T03:35:09.732Z,22.67
2023-05-09T03:37:36.352Z,23.95
2023-05-09T03:40:03.828Z,23.63
2023-05-09T03:42:30.988Z,22.88
2023-05-09T03:44:58.043Z,23.23
2023-05-09T03:47:24.622Z,22.92
2023-05-09T03:49:51.340Z,21.00
2023-05-09T03:52:17.945Z,22.20
2023-05-09T03:54:44.537Z,21.40
2023-05-09T03:57:11.326Z,20.23
2023-05-09T03:59:37.900Z,20.92
2023-05-09T04:02:04.668Z,24.85
2023-05-09T04:04:31.345Z,22.70
2023-05-09T04:06:57.960Z,23.13
2023-05-09T04:09:24.896Z,22.70
2023-05-09T04:11:51.478Z,20.38
2023-05-09T04:14:18.349Z,23.50
2023-05-09T04:16:44.988Z,19.92
2023-05-09T04:19:11.729Z,20.35
2023-05-09T04:21:38.414Z,24.17
2023-05-09T04:24:05.765Z,23.88
2023-05-09T04:26:32.724Z,24.20
2023-05-09T04:28:59.354Z,22.17
2023-05-09T04:31:26.587Z,24.88
2023-05-09T04:33:53.627Z,22.27
2023-05-09T04:36:21.217Z,21.98
2023-05-09T04:38:47.816Z,23.45
2023-05-09T04:41:14.581Z,23.90
2023-05-09T04:43:41.476Z,23.52
2023-05-09T04:46:08.365Z,20.88
2023-05-09T04:48:35.887Z,23.95
2023-05-09T04:51:02.533Z,20.15
2023-05-09T04:53:29.549Z,25.98
2023-05-09T04:55:56.245Z,26.23
2023-05-09T04:58:22.991Z,26.60
2023-05-09T05:00:50.049Z,25.75
2023-05-09T05:03:17.897Z,25.70
2023-05-09T05:05:45.158Z,24.40
2023-05-09T05:08:11.929Z,22.02
2023-05-09T05:10:38.673Z,22.45
2023-05-09T05:13:05.433Z,22.83
2023-05-09T05:15:32.060Z,27.95
2023-05-09T05:17:58.719Z,28.52
2023-05-09T05:20:25.354Z,27.70
2023-05-09T05:22:52.076Z,28.65
2023-05-09T05:25:18.750Z,29.23
2023-05-09T05:27:45.455Z,26.85
2023-05-09T05:30:13.798Z,27.92
2023-05-09T05:32:40.572Z,27.88
2023-05-09T05:35:07.674Z,28.00
2023-05-09T05:37:34.346Z,26.83
2023-05-09T05:40:01.244Z,28.02
2023-05-09T05:42:27.974Z,27.08
2023-05-09T05:44:54.568Z,27.27
2023-05-09T05:47:21.195Z,24.90
2023-05-09T05:49:48.466Z,27.05
2023-05-09T05:52:15.074Z,27.52
2023-05-09T05:54:41.853Z,26.52
2023-05-09T05:57:08.592Z,27.10
2023-05-09T05:59:35.328Z,24.65
2023-05-09T06:02:02.132Z,27.20
2023-05-09T06:04:29.077Z,27.98
2023-05-09T06:06:55.853Z,28.42
2023-05-09T06:09:22.493Z,27.15
2023-05-09T06:11:49.128Z,25.58
2023-05-09T06:14:15.719Z,25.58
2023-05-09T06:16:42.424Z,28.00
2023-05-09T06:19:09.052Z,26.67
2023-05-09T06:21:35.694Z,26.38
2023-05-09T06:24:10.137Z,27.63
2023-05-09T06:26:41.179Z,29.00
2023-05-09T06:29:08.106Z,29.98
2023-05-09T06:31:39.114Z,27.55
2023-05-09T06:34:06.375Z,29.52
2023-05-09T06:36:33.447Z,28.42
2023-05-09T06:39:00.392Z,27.75
2023-05-09T06:41:27.033Z,27.65
2023-05-09T06:43:53.771Z,28.23
2023-05-09T06:46:20.512Z,28.35
2023-05-09T06:48:47.201Z,29.15
2023-05-09T06:51:13.804Z,26.77
2023-05-09T06:53:40.402Z,27.52
2023-05-09T06:56:07.279Z,25.85
2023-05-09T06:58:33.939Z,29.13
2023-05-09T07:01:00.651Z,27.92
2023-05-09T07:03:27.455Z,30.88
2023-05-09T07:05:56.800Z,30.73
2023-05-09T07:08:23.376Z,25.75
2023-05-09T07:10:50.036Z,28.10
2023-05-09T07:13:16.845Z,31.25
2023-05-09T07:15:43.700Z,29.42
2023-05-09T07:18:10.581Z,30.00
2023-05-09T07:20:37.460Z,26.92
2023-05-09T07:23:04.801Z,28.30
2023-05-09T07:25:31.912Z,26.83
2023-05-09T07:27:58.641Z,30.30
2023-05-09T07:30:25.348Z,27.83
2023-05-09T07:32:52.359Z,27.88
2023-05-09T07:35:20.041Z,29.20
2023-05-09T07:37:46.828Z,28.73
2023-05-09T07:40:14.057Z,28.13
2023-05-09T07:42:40.974Z,28.98
2023-05-09T07:45:08.068Z,29.30
2023-05-09T07:47:34.933Z,30.27
2023-05-09T07:50:01.702Z,30.02
2023-05-09T07:52:28.335Z,32.40
2023-05-09T07:54:55.120Z,31.00
2023-05-09T07:57:22.534Z,33.67
2023-05-09T07:59:49.219Z,31.45
2023-05-09T08:02:15.933Z,29.25
2023-05-09T08:04:42.652Z,32.00
2023-05-09T08:07:09.420Z,32.00
2023-05-09T08:09:36.232Z,31.52
2023-05-09T08:12:02.964Z,32.72
2023-05-09T08:14:29.825Z,32.08
2023-05-09T08:16:56.436Z,29.52
2023-05-09T08:19:26.134Z,30.60
2023-05-09T08:21:53.344Z,29.30
2023-05-09T08:24:20.207Z,28.30
2023-05-09T08:26:47.146Z,28.42
2023-05-09T08:29:13.894Z,28.08
2023-05-09T08:31:41.142Z,27.27
2023-05-09T08:34:07.927Z,27.88
2023-05-09T08:36:34.714Z,27.80
2023-05-09T08:39:02.350Z,28.23
2023-05-09T08:41:29.753Z,28.42
2023-05-09T08:43:56.586Z,27.73
2023-05-09T08:46:28.559Z,29.08
2023-05-09T08:48:56.756Z,28.00
2023-05-09T08:51:23.958Z,28.08
2023-05-09T08:53:51.951Z,28.05
2023-05-09T08:56:18.892Z,27.98
2023-05-09T08:58:45.852Z,29.35
2023-05-09T09:01:14.390Z,26.63
2023-05-09T09:03:47.529Z,28.52
2023-05-09T09:06:14.369Z,27.90
2023-05-09T09:08:41.953Z,29.00
2023-05-09T09:11:11.918Z,28.20
2023-05-09T09:13:41.190Z,28.48
2023-05-09T09:16:20.968Z,27.95
2023-05-09T09:18:49.654Z,28.55
2023-05-09T09:21:17.815Z,29.05
2023-05-09T09:23:47.616Z,30.85
2023-05-09T09:26:14.303Z,29.42
2023-05-09T09:28:41.388Z,28.38
2023-05-09T09:31:25.544Z,27.02
2023-05-09T09:33:52.224Z,25.70
2023-05-09T09:36:29.125Z,27.77
2023-05-09T09:39:00.642Z,29.95
2023-05-09T09:41:34.303Z,30.42
2023-05-09T09:44:11.543Z,28.92
2023-05-09T09:46:48.871Z,27.80
2023-05-09T09:49:18.160Z,31.83
2023-05-09T09:51:45.049Z,29.42
2023-05-09T09:54:13.095Z,29.33
2023-05-09T09:56:40.277Z,28.77
2023-05-09T09:59:12.197Z,31.45
2023-05-09T10:02:09.501Z,31.48
2023-05-09T10:04:37.940Z,30.55
2023-05-09T10:07:07.176Z,31.42
2023-05-09T10:09:35.160Z,30.77
2023-05-09T10:12:06.454Z,30.60
2023-05-09T10:14:35.838Z,29.73
2023-05-09T10:17:04.863Z,28.90
2023-05-09T10:19:32.260Z,29.13
2023-05-09T10:22:10.308Z,29.35
2023-05-09T10:24:45.750Z,28.55
2023-05-09T10:27:13.107Z,28.67
2023-05-09T10:29:45.762Z,28.02
2023-05-09T10:32:18.256Z,28.52
2023-05-09T10:34:50.088Z,29.48
2023-05-09T10:37:17.944Z,31.30
2023-05-09T10:39:44.692Z,26.60
2023-05-09T10:42:13.982Z,27.58
2023-05-09T10:44:40.932Z,27.60
2023-05-09T10:47:08.096Z,28.30
2023-05-09T10:49:37.088Z,26.17
2023-05-09T10:52:04.382Z,27.20
2023-05-09T10:54:33.511Z,27.00
2023-05-09T10:57:00.877Z,27.27
2023-05-09T10:59:38.058Z,26.05
2023-05-09T11:02:05.582Z,27.13
2023-05-09T11:04:33.051Z,25.52
2023-05-09T11:07:00.756Z,24.58
2023-05-09T11:09:38.922Z,26.90
2023-05-09T11:12:06.019Z,25.90
2023-05-09T11:14:54.550Z,24.08
2023-05-09T11:17:21.244Z,22.38
2023-05-09T11:19:47.962Z,24.15
2023-05-09T11:22:22.215Z,23.50
2023-05-09T11:24:50.322Z,25.23
2023-05-09T11:27:19.514Z,25.40
2023-05-09T11:29:51.170Z,26.35
2023-05-09T11:32:18.334Z,28.45
2023-05-09T11:34:45.780Z,27.55
2023-05-09T11:37:15.843Z,31.45
2023-05-09T11:40:00.053Z,29.80
2023-05-09T11:42:30.481Z,28.92
2023-05-09T11:44:58.922Z,30.85
2023-05-09T11:47:26.384Z,29.83
2023-05-09T11:49:53.218Z,30.17
2023-05-09T11:52:21.703Z,32.17
2023-05-09T11:54:49.655Z,35.95
2023-05-09T11:57:19.620Z,38.22
2023-05-09T11:59:46.368Z,37.88
2023-05-09T12:02:13.481Z,39.78
2023-05-09T12:04:40.195Z,39.95
2023-05-09T12:07:07.124Z,40.60
2023-05-09T12:09:37.890Z,42.15
2023-05-09T12:12:14.429Z,45.35
2023-05-09T12:14:41.680Z,47.60
2023-05-09T12:17:08.459Z,50.22
2023-05-09T12:19:35.449Z,50.78
2023-05-09T12:22:03.825Z,49.78
2023-05-09T12:24:31.284Z,50.28
2023-05-09T12:26:59.505Z,44.40
2023-05-09T12:29:27.246Z,47.13
2023-05-09T12:31:54.530Z,44.72
2023-05-09T12:34:21.518Z,41.25
2023-05-09T12:36:50.851Z,40.63
2023-05-09T12:39:22.897Z,36.08
2023-05-09T12:42:01.059Z,35.78
2023-05-09T12:44:29.639Z,29.58
2023-05-09T12:47:02.846Z,30.88
2023-05-09T12:49:31.574Z,31.02
2023-05-09T12:52:01.570Z,27.63
2023-05-09T12:54:30.264Z,24.05
2023-05-09T12:56:58.455Z,22.02
2023-05-09T12:59:26.967Z,23.25
2023-05-09T13:02:00.679Z,23.50
2023-05-09T13:04:28.519Z,22.88
2023-05-09T13:06:57.724Z,24.08
2023-05-09T13:09:26.277Z,23.25
2023-05-09T13:11:53.618Z,20.65
2023-05-09T13:14:23.595Z,21.73
2023-05-09T13:16:50.397Z,22.27
2023-05-09T13:19:17.160Z,21.45
2023-05-09T13:21:43.819Z,20.25
2023-05-09T13:24:10.717Z,18.30
2023-05-09T13:26:37.286Z,19.00
2023-05-09T13:29:03.997Z,20.48
2023-05-09T13:31:31.144Z,19.98
2023-05-09T13:33:57.892Z,20.90
2023-05-09T13:36:24.604Z,20.45
2023-05-09T13:38:51.196Z,21.30
2023-05-09T13:41:21.778Z,22.50
2023-05-09T13:43:48.638Z,20.98
2023-05-09T13:46:15.659Z,22.33
2023-05-09T13:48:42.441Z,21.38
2023-05-09T13:51:09.952Z,21.33
2023-05-09T13:53:38.860Z,23.33
2023-05-09T13:56:07.491Z,25.92
2023-05-09T13:58:34.173Z,25.05
2023-05-09T14:01:00.831Z,27.13
2023-05-09T14:03:27.575Z,26.42
2023-05-09T14:05:54.327Z,30.15
2023-05-09T14:08:21.468Z,30.23
2023-05-09T14:10:48.220Z,29.17
2023-05-09T14:13:15.694Z,31.38
2023-05-09T14:15:42.495Z,31.38
2023-05-09T14:18:09.223Z,27.77
2023-05-09T14:20:37.453Z,26.02
2023-05-09T14:23:04.286Z,27.60
2023-05-09T14:25:30.935Z,26.40
2023-05-09T14:27:59.270Z,24.45
2023-05-09T14:30:26.663Z,22.08
2023-05-09T14:32:53.481Z,19.73
2023-05-09T14:35:20.371Z,18.38
2023-05-09T14:37:47.189Z,18.17
2023-05-09T14:40:14.776Z,19.52
2023-05-09T14:42:42.155Z,18.45
2023-05-09T14:45:12.144Z,19.35
2023-05-09T14:47:38.980Z,18.58
2023-05-09T14:50:07.311Z,18.45
2023-05-09T14:52:34.057Z,18.50
2023-05-09T14:55:00.701Z,19.45
2023-05-09T14:57:27.646Z,17.75
2023-05-09T14:59:54.293Z,17.40
2023-05-09T15:02:21.079Z,18.25
2023-05-09T15:04:47.727Z,19.98
2023-05-09T15:07:14.334Z,18.00
2023-05-09T15:09:41.784Z,18.23
2023-05-09T15:12:08.424Z,19.75
2023-05-09T15:14:35.145Z,19.67
2023-05-09T15:17:04.242Z,20.75
2023-05-09T15:19:31.493Z,20.30
2023-05-09T15:21:59.694Z,22.05
2023-05-09T15:24:26.860Z,21.42
2023-05-09T15:26:54.277Z,21.05
2023-05-09T15:29:21.737Z,22.45
2023-05-09T15:31:48.976Z,22.20
2023-05-09T15:34:15.634Z,20.52
2023-05-09T15:36:42.362Z,20.95
2023-05-09T15:39:09.094Z,19.67
2023-05-09T15:41:35.687Z,22.08
2023-05-09T15:44:02.399Z,22.38
2023-05-09T15:46:29.694Z,22.63
2023-05-09T15:48:58.224Z,23.02
2023-05-09T15:51:25.169Z,23.30
2023-05-09T15:53:52.006Z,24.30
2023-05-09T15:56:19.070Z,25.20
2023-05-09T15:58:46.091Z,27.17
2023-05-09T16:01:14.428Z,34.30
2023-05-09T16:03:41.638Z,35.90
2023-05-09T16:06:08.404Z,38.65
2023-05-09T16:08:35.116Z,38.35
2023-05-09T16:11:02.040Z,44.70
2023-05-09T16:13:29.857Z,34.00
2023-05-09T16:15:56.926Z,46.30
2023-05-09T16:18:23.803Z,49.08
2023-05-09T16:20:50.655Z,29.92
2023-05-09T16:23:17.622Z,37.88
2023-05-09T16:25:44.991Z,34.50
2023-05-09T16:28:11.742Z,34.20
2023-05-09T16:30:38.448Z,30.60
2023-05-09T16:33:05.069Z,26.65
2023-05-09T16:35:31.850Z,24.25
2023-05-09T16:37:58.562Z,26.33
2023-05-09T16:40:25.207Z,20.45
2023-05-09T16:42:53.098Z,19.13
2023-05-09T16:45:19.810Z,16.23
2023-05-09T16:47:46.506Z,15.75
2023-05-09T16:50:13.613Z,19.98
2023-05-09T16:52:40.343Z,16.17
2023-05-09T16:55:07.331Z,17.33
2023-05-09T16:57:34.031Z,17.02
2023-05-09T17:00:00.903Z,19.10
2023-05-09T17:02:27.672Z,19.30
2023-05-09T17:04:54.638Z,16.95
2023-05-09T17:07:21.425Z,19.27
2023-05-09T17:09:49.637Z,21.10
2023-05-09T17:12:18.276Z,24.75
2023-05-09T17:14:46.608Z,24.58
2023-05-09T17:17:14.512Z,24.15
2023-05-09T17:19:41.198Z,23.55
2023-05-09T17:22:08.608Z,21.50
2023-05-09T17:24:35.250Z,22.73
2023-05-09T17:27:02.158Z,23.27
2023-05-09T17:29:30.734Z,22.33
2023-05-09T17:32:00.564Z,22.73
2023-05-09T17:34:28.140Z,22.17
2023-05-09T17:36:54.758Z,20.63
2023-05-09T17:39:22.040Z,21.75
2023-05-09T17:41:48.684Z,22.38
2023-05-09T17:44:15.923Z,20.50
2023-05-09T17:46:43.022Z,22.33
2023-05-09T17:49:11.052Z,23.20
2023-05-09T17:51:37.708Z,24.85
2023-05-09T17:54:05.472Z,25.65
2023-05-09T17:56:32.198Z,26.52
2023-05-09T17:59:01.854Z,26.17
2023-05-09T18:03:55.230Z,30.17
2023-05-09T18:06:21.984Z,26.50
2023-05-09T18:08:48.639Z,32.53
2023-05-09T18:11:15.523Z,29.77
2023-05-09T18:13:42.181Z,29.90
2023-05-09T18:16:08.944Z,26.55
2023-05-09T18:18:36.452Z,30.13
2023-05-09T18:21:04.846Z,27.45
2023-05-09T18:23:31.563Z,28.13
2023-05-09T18:25:58.322Z,32.40
2023-05-09T18:28:25.730Z,30.80
2023-05-09T18:31:00.400Z,29.90
2023-05-09T18:33:28.617Z,28.65
2023-05-09T18:35:55.335Z,37.00
2023-05-09T18:38:23.718Z,35.53
2023-05-09T18:40:51.926Z,29.35
2023-05-09T18:43:20.688Z,39.80
2023-05-09T18:45:48.109Z,55.03
2023-05-09T18:48:17.558Z,6.53
2023-05-09T18:50:44.772Z,5.40
2023-05-09T18:53:11.562Z,7.22
2023-05-09T18:55:38.740Z,13.68
2023-05-09T18:58:06.208Z,16.45
2023-05-09T19:00:34.204Z,20.73
2023-05-09T19:03:00.932Z,23.13
2023-05-09T19:05:27.753Z,16.90
2023-05-09T19:07:54.411Z,22.65
2023-05-09T19:10:21.262Z,19.55
2023-05-09T19:12:49.023Z,22.00
2023-05-09T19:15:16.063Z,17.80
2023-05-09T19:17:42.707Z,22.27
2023-05-09T19:20:10.028Z,19.17
2023-05-09T19:22:36.912Z,17.52
2023-05-09T19:25:03.792Z,19.05
2023-05-09T19:27:30.611Z,20.92
2023-05-09T19:29:57.215Z,19.65
2023-05-09T19:32:23.821Z,19.23
2023-05-09T19:34:50.612Z,15.15
2023-05-09T19:37:17.363Z,16.45
2023-05-09T19:39:44.089Z,15.73
2023-05-09T19:42:10.831Z,18.50
2023-05-09T19:44:37.465Z,14.95
2023-05-09T19:47:05.370Z,16.70
2023-05-09T19:49:32.795Z,21.52
2023-05-09T19:51:59.399Z,22.83
2023-05-09T19:54:27.051Z,19.30
2023-05-09T19:56:53.822Z,24.35
2023-05-09T19:59:20.543Z,22.95
2023-05-09T20:01:47.244Z,17.25
2023-05-09T20:04:13.928Z,21.55
2023-05-09T20:06:41.200Z,19.20
2023-05-09T20:09:07.830Z,34.83
2023-05-09T20:11:34.462Z,47.17
2023-05-09T20:14:00.999Z,51.63
2023-05-09T20:16:27.767Z,31.17
2023-05-09T20:18:55.046Z,32.38
2023-05-09T20:21:21.824Z,38.45
2023-05-09T20:23:48.394Z,30.63
2023-05-09T20:26:15.007Z,30.13
2023-05-09T20:28:41.643Z,32.15
2023-05-09T20:31:08.289Z,27.85
2023-05-09T20:33:35.141Z,28.65
2023-05-09T20:36:01.812Z,31.90
2023-05-09T20:38:28.515Z,33.65
2023-05-09T20:40:55.150Z,31.77
2023-05-09T20:43:21.838Z,36.95
2023-05-09T20:45:48.599Z,46.88
2023-05-09T20:48:15.262Z,35.60
2023-05-09T20:50:41.975Z,38.80
2023-05-09T20:53:08.644Z,36.90
2023-05-09T20:55:35.275Z,43.85
2023-05-09T20:58:01.961Z,39.60
2023-05-09T21:00:28.758Z,44.55
2023-05-09T21:02:58.274Z,50.70
2023-05-09T21:05:25.522Z,41.47
2023-05-09T21:07:52.093Z,41.70
2023-05-09T21:10:18.859Z,45.25
2023-05-09T21:12:45.606Z,42.58
2023-05-09T21:15:12.308Z,47.72
2023-05-09T21:17:39.007Z,40.58
2023-05-09T21:20:06.369Z,41.97
2023-05-09T21:22:33.015Z,40.05
2023-05-09T21:24:59.606Z,44.15
2023-05-09T21:27:26.969Z,50.15
2023-05-09T21:29:53.561Z,41.78
2023-05-09T21:32:20.178Z,40.10
2023-05-09T21:34:47.827Z,29.20
2023-05-09T21:37:15.110Z,33.20
2023-05-09T21:39:41.839Z,31.35
2023-05-09T21:42:08.887Z,38.10
2023-05-09T21:44:35.947Z,32.45
2023-05-09T21:47:02.755Z,30.67
2023-05-09T21:49:29.624Z,35.45
2023-05-09T21:51:56.366Z,42.10
2023-05-09T21:54:23.307Z,40.92
2023-05-09T21:56:49.906Z,33.45
2023-05-09T21:59:17.799Z,30.70
2023-05-09T22:01:46.019Z,33.78
2023-05-09T22:04:12.823Z,42.55
2023-05-09T22:06:41.587Z,41.05
2023-05-09T22:09:09.390Z,38.93
2023-05-09T22:11:36.447Z,31.10
2023-05-09T22:14:03.168Z,26.48
2023-05-09T22:16:30.291Z,25.88
2023-05-09T22:18:57.064Z,20.60
2023-05-09T22:21:23.688Z,22.55
2023-05-09T22:23:50.355Z,19.17
2023-05-09T22:26:16.930Z,24.33
2023-05-09T22:28:43.615Z,18.40
2023-05-09T22:31:10.510Z,22.65
2023-05-09T22:33:37.119Z,25.55
2023-05-09T22:36:04.030Z,22.60
2023-05-09T22:38:30.703Z,21.83
2023-05-09T22:40:57.322Z,22.80
2023-05-09T22:43:25.393Z,31.75
2023-05-09T22:45:55.395Z,24.30
2023-05-09T22:48:22.039Z,23.98
2023-05-09T22:50:48.890Z,23.10
2023-05-09T22:53:16.445Z,23.77
2023-05-09T22:55:43.036Z,23.27
2023-05-09T22:58:10.163Z,30.17
2023-05-09T23:00:36.885Z,29.05
2023-05-09T23:03:04.468Z,25.67
2023-05-09T23:05:31.233Z,27.65
2023-05-09T23:07:57.918Z,28.77
2023-05-09T23:10:24.547Z,27.30
2023-05-09T23:12:51.326Z,30.00
2023-05-09T23:15:18.076Z,29.38
2023-05-09T23:17:44.764Z,24.88
2023-05-09T23:20:11.804Z,17.88
2023-05-09T23:22:39.587Z,5.20
2023-05-09T23:25:07.064Z,5.25
2023-05-09T23:27:33.648Z,2.65
2023-05-09T23:30:00.348Z,2.83
2023-05-09T23:32:27.060Z,2.00
2023-05-09T23:34:53.708Z,1.05
2023-05-09T23:37:20.334Z,0.85
2023-05-09T23:39:46.984Z,0.70
2023-05-09T23:42:13.662Z,0.90
2023-05-09T23:44:40.306Z,0.77
2023-05-09T23:47:07.086Z,0.60
2023-05-09T23:49:33.739Z,1.00
2023-05-09T23:52:00.334Z,0.73
2023-05-09T23:54:27.121Z,0.70
2023-05-09T23:56:54.035Z,0.63
2023-05-09T23:59:20.623Z,0.47
